createdAt,value
2017-11-24T00:02:11.727Z,76.70
2017-11-24T00:04:38.179Z,69.10
2017-11-24T00:07:04.625Z,65.03
2017-11-24T00:09:30.952Z,72.43
2017-11-24T00:11:57.511Z,67.67
2017-11-24T00:14:23.918Z,78.67
2017-11-24T00:16:50.431Z,72.03
2017-11-24T00:19:16.891Z,69.03
2017-11-24T00:21:43.255Z,75.33
2017-11-24T00:24:09.772Z,75.83
2017-11-24T00:26:36.091Z,69.20
2017-11-24T00:29:03.346Z,68.30
2017-11-24T00:31:29.789Z,66.90
2017-11-24T00:33:56.151Z,68.90
2017-11-24T00:36:22.663Z,83.03
2017-11-24T00:38:49.191Z,70.30
2017-11-24T00:41:15.634Z,64.80
2017-11-24T00:43:42.060Z,63.40
2017-11-24T00:46:09.219Z,63.17
2017-11-24T00:48:35.643Z,68.10
2017-11-24T00:51:02.077Z,67.13
2017-11-24T00:53:28.511Z,63.80
2017-11-24T00:55:55.053Z,63.50
2017-11-24T00:58:21.483Z,69.30
2017-11-24T01:00:47.919Z,70.90
2017-11-24T01:03:15.078Z,66.07
2017-11-24T01:05:41.440Z,61.40
2017-11-24T01:08:07.859Z,78.60
2017-11-24T01:10:34.279Z,70.50
2017-11-24T01:13:00.671Z,69.17
2017-11-24T01:15:27.113Z,66.17
2017-11-24T01:17:53.602Z,69.13
2017-11-24T01:20:20.728Z,67.20
2017-11-24T01:22:47.322Z,63.00
2017-11-24T01:25:13.698Z,61.83
2017-11-24T01:27:40.133Z,69.37
2017-11-24T01:30:06.570Z,62.97
2017-11-24T01:32:32.935Z,62.33
2017-11-24T01:34:59.266Z,65.67
2017-11-24T01:37:26.487Z,62.57
2017-11-24T01:39:52.921Z,55.57
2017-11-24T01:42:19.355Z,63.63
2017-11-24T01:44:45.789Z,56.00
2017-11-24T01:47:12.122Z,56.17
2017-11-24T01:49:38.662Z,56.07
2017-11-24T01:52:05.094Z,74.57
2017-11-24T01:54:32.375Z,69.87
2017-11-24T01:56:58.989Z,63.53
2017-11-24T01:59:25.430Z,67.17
2017-11-24T02:01:51.966Z,67.03
2017-11-24T02:04:18.326Z,68.97
2017-11-24T02:06:44.836Z,65.93
2017-11-24T02:09:11.210Z,59.40
2017-11-24T02:11:38.434Z,59.20
2017-11-24T02:14:04.849Z,61.73
2017-11-24T02:16:31.213Z,66.20
2017-11-24T02:18:57.614Z,59.53
2017-11-24T02:21:23.949Z,54.30
2017-11-24T02:23:50.389Z,48.13
2017-11-24T02:26:16.807Z,50.17
2017-11-24T02:28:43.884Z,53.27
2017-11-24T02:31:10.407Z,48.63
2017-11-24T02:33:36.807Z,50.50
2017-11-24T02:36:03.274Z,51.63
2017-11-24T02:38:29.718Z,49.87
2017-11-24T02:40:56.141Z,48.53
2017-11-24T02:43:22.686Z,52.80
2017-11-24T02:45:49.727Z,48.50
2017-11-24T02:48:16.171Z,50.30
2017-11-24T02:50:42.636Z,52.03
2017-11-24T02:53:09.035Z,60.20
2017-11-24T02:55:35.466Z,56.30
2017-11-24T02:58:01.903Z,54.03
2017-11-24T03:00:28.958Z,60.47
2017-11-24T03:02:55.493Z,48.73
2017-11-24T03:05:21.921Z,51.67
2017-11-24T03:07:48.357Z,49.30
2017-11-24T03:10:14.810Z,42.90
2017-11-24T03:12:41.218Z,47.77
2017-11-24T03:15:07.668Z,45.07
2017-11-24T03:17:34.102Z,50.50
2017-11-24T03:20:01.246Z,45.17
2017-11-24T03:22:27.708Z,48.83
2017-11-24T03:24:54.124Z,47.40
2017-11-24T03:27:20.550Z,49.23
2017-11-24T03:29:47.013Z,50.87
2017-11-24T03:32:13.424Z,57.77
2017-11-24T03:34:39.875Z,49.23
2017-11-24T03:37:07.014Z,57.53
2017-11-24T03:39:33.452Z,47.13
2017-11-24T03:41:59.881Z,44.57
2017-11-24T03:44:26.308Z,53.43
2017-11-24T03:46:52.753Z,44.97
2017-11-24T03:49:19.109Z,44.07
2017-11-24T03:51:45.516Z,52.03
2017-11-24T03:54:12.662Z,42.33
2017-11-24T03:56:39.098Z,45.97
2017-11-24T03:59:05.533Z,86.97
2017-11-24T04:01:31.985Z,92.77
2017-11-24T04:03:58.411Z,61.70
2017-11-24T04:06:24.845Z,65.23
2017-11-24T04:08:51.272Z,64.27
2017-11-24T04:11:18.421Z,60.17
2017-11-24T04:13:44.875Z,61.77
2017-11-24T04:16:11.216Z,68.83
2017-11-24T04:18:37.623Z,68.47
2017-11-24T04:21:04.057Z,69.43
2017-11-24T04:23:30.493Z,63.03
2017-11-24T04:25:56.935Z,61.57
2017-11-24T04:28:24.086Z,66.67
2017-11-24T04:30:50.512Z,78.90
2017-11-24T04:33:16.947Z,62.77
2017-11-24T04:35:43.382Z,65.93
2017-11-24T04:38:09.825Z,64.67
2017-11-24T04:40:36.251Z,70.90
2017-11-24T04:43:02.689Z,70.40
2017-11-24T04:45:29.849Z,79.20
2017-11-24T04:47:56.273Z,72.00
2017-11-24T04:50:22.716Z,79.03
2017-11-24T04:52:49.150Z,83.57
2017-11-24T04:55:15.543Z,84.87
2017-11-24T04:57:41.909Z,80.07
2017-11-24T05:00:08.442Z,83.90
2017-11-24T05:02:35.572Z,76.63
2017-11-24T05:05:01.930Z,82.47
2017-11-24T05:07:28.318Z,58.03
2017-11-24T05:09:54.806Z,52.63
2017-11-24T05:12:21.195Z,50.07
2017-11-24T05:14:47.667Z,65.40
2017-11-24T05:17:14.108Z,57.17
2017-11-24T05:19:41.287Z,55.60
2017-11-24T05:22:07.700Z,55.43
2017-11-24T05:24:34.122Z,58.73
2017-11-24T05:27:00.490Z,54.43
2017-11-24T05:29:26.892Z,60.67
2017-11-24T05:31:53.333Z,86.83
2017-11-24T05:34:19.762Z,79.27
2017-11-24T05:36:46.920Z,67.77
2017-11-24T05:39:13.346Z,90.00
2017-11-24T05:41:39.789Z,81.33
2017-11-24T05:44:06.219Z,87.20
2017-11-24T05:46:32.650Z,73.63
2017-11-24T05:48:58.982Z,76.03
2017-11-24T05:51:25.416Z,71.83
2017-11-24T05:53:52.506Z,67.27
2017-11-24T05:56:18.903Z,63.20
2017-11-24T05:58:45.337Z,71.00
2017-11-24T06:01:11.779Z,264.33
2017-11-24T06:03:38.206Z,185.63
2017-11-24T06:06:04.851Z,97.30
2017-11-24T06:08:31.211Z,75.37
2017-11-24T06:10:57.705Z,83.00
2017-11-24T06:13:24.150Z,82.10
2017-11-24T06:15:50.589Z,87.23
2017-11-24T06:18:17.955Z,77.23
2017-11-24T06:20:44.482Z,76.17
2017-11-24T06:23:10.909Z,80.37
2017-11-24T06:25:37.616Z,71.70
2017-11-24T06:28:04.079Z,86.63
2017-11-24T06:30:30.519Z,357.93
2017-11-24T06:32:57.027Z,366.87
2017-11-24T06:35:23.388Z,192.90
2017-11-24T06:37:49.928Z,171.00
2017-11-24T06:40:16.676Z,180.67
2017-11-24T06:42:43.111Z,172.10
2017-11-24T06:45:09.796Z,279.90
2017-11-24T06:47:36.905Z,146.50
2017-11-24T06:50:03.807Z,128.57
2017-11-24T06:52:30.389Z,199.10
2017-11-24T06:54:57.333Z,259.33
2017-11-24T06:57:23.760Z,467.93
2017-11-24T06:59:50.297Z,609.10
2017-11-24T07:02:16.730Z,224.50
2017-11-24T07:04:43.472Z,160.10
2017-11-24T07:12:13.221Z,86.90
2017-11-24T07:14:39.657Z,83.90
2017-11-24T07:17:06.090Z,92.43
2017-11-24T07:22:04.098Z,108.00
2017-11-24T07:24:30.513Z,105.43
2017-11-24T07:26:58.159Z,117.47
2017-11-24T07:29:25.033Z,99.57
2017-11-24T07:31:51.568Z,98.37
2017-11-24T07:34:18.087Z,108.47
2017-11-24T07:36:44.639Z,106.73
2017-11-24T07:39:11.003Z,112.57
2017-11-24T07:41:37.718Z,134.73
2017-11-24T07:54:10.256Z,78.10
2017-11-24T07:56:36.695Z,86.07
2017-11-24T07:59:03.124Z,72.93
2017-11-24T08:01:30.002Z,76.50
2017-11-24T08:03:56.931Z,76.20
2017-11-24T08:06:23.556Z,69.90
2017-11-24T08:08:50.487Z,69.10
2017-11-24T08:11:17.053Z,64.60
2017-11-24T08:13:43.857Z,75.17
2017-11-24T08:16:10.843Z,88.63
2017-11-24T08:18:37.573Z,68.07
2017-11-24T08:21:04.117Z,72.33
2017-11-24T08:23:30.916Z,78.43
2017-11-24T08:25:57.601Z,85.37
2017-11-24T08:28:24.272Z,66.33
2017-11-24T08:30:51.140Z,63.17
2017-11-24T08:33:17.589Z,52.37
2017-11-24T08:35:44.254Z,72.73
2017-11-24T08:38:11.097Z,96.53
2017-11-24T08:40:37.567Z,82.03
2017-11-24T08:43:04.075Z,89.30
2017-11-24T08:45:30.614Z,68.40
2017-11-24T08:47:57.705Z,74.50
2017-11-24T08:50:24.195Z,56.77
2017-11-24T08:52:50.730Z,62.63
2017-11-24T08:55:17.575Z,69.00
2017-11-24T08:57:44.111Z,94.50
2017-11-24T09:00:10.515Z,194.93
2017-11-24T09:02:37.390Z,83.97
2017-11-24T09:05:03.926Z,58.37
2017-11-24T09:07:30.362Z,49.40
2017-11-24T09:09:57.000Z,55.90
2017-11-24T09:12:23.443Z,57.77
2017-11-24T09:14:49.972Z,56.73
2017-11-24T09:17:17.173Z,63.23
2017-11-24T09:19:43.558Z,63.97
2017-11-24T09:22:10.000Z,54.00
2017-11-24T09:24:36.522Z,49.97
2017-11-24T09:27:03.484Z,50.80
2017-11-24T09:29:29.879Z,55.33
2017-11-24T09:31:56.278Z,54.57
2017-11-24T09:34:22.892Z,59.80
2017-11-24T10:05:42.673Z,44.50
2017-11-24T10:08:09.110Z,55.97
2017-11-24T10:10:35.541Z,53.60
2017-11-24T10:13:02.455Z,60.23
2017-11-24T10:15:28.875Z,56.33
2017-11-24T10:17:56.391Z,58.00
2017-11-24T10:20:23.625Z,57.20
2017-11-24T10:29:54.322Z,48.93
2017-11-24T10:32:20.863Z,49.60
2017-11-24T10:34:47.705Z,44.03
2017-11-24T10:37:14.444Z,49.87
2017-11-24T10:39:40.879Z,46.17
2017-11-24T10:42:07.586Z,61.23
2017-11-24T10:44:34.984Z,35.17
2017-11-24T10:47:02.074Z,38.33
2017-11-24T10:49:28.562Z,35.83
2017-11-24T10:51:55.898Z,32.07
2017-11-24T10:56:53.624Z,31.80
2017-11-24T10:59:20.525Z,48.90
2017-11-24T11:01:47.086Z,32.00
2017-11-24T11:04:13.628Z,33.50
2017-11-24T11:06:40.742Z,27.90
2017-11-24T11:09:07.412Z,26.90
2017-11-24T11:11:33.887Z,26.50
2017-11-24T11:14:00.592Z,31.17
2017-11-24T11:16:27.411Z,28.53
2017-11-24T11:18:53.981Z,30.80
2017-11-24T11:21:20.303Z,27.93
2017-11-24T11:23:46.914Z,25.77
2017-11-24T11:26:13.318Z,24.30
2017-11-24T11:28:39.729Z,24.50
2017-11-24T11:31:06.455Z,24.10
2017-11-24T11:33:33.001Z,22.10
2017-11-24T11:35:59.425Z,21.50
2017-11-24T11:38:26.336Z,21.27
2017-11-24T11:40:52.771Z,25.53
2017-11-24T11:43:19.241Z,30.87
2017-11-24T11:45:46.817Z,24.30
2017-11-24T11:54:15.565Z,20.00
2017-11-24T11:56:41.969Z,22.00
2017-11-24T11:59:08.356Z,21.43
2017-11-24T12:01:34.841Z,22.73
2017-11-24T12:09:19.277Z,33.50
2017-11-24T12:11:45.775Z,25.80
2017-11-24T12:14:12.445Z,25.80
2017-11-24T12:16:38.907Z,34.47
2017-11-24T12:23:38.266Z,23.27
2017-11-24T12:26:05.746Z,26.10
2017-11-24T12:32:53.759Z,24.10
2017-11-24T12:35:20.141Z,25.27
2017-11-24T12:37:46.583Z,26.73
2017-11-24T12:42:48.753Z,34.10
2017-11-24T12:45:15.229Z,29.00
2017-11-24T12:58:28.920Z,33.53
2017-11-24T13:00:55.459Z,32.00
2017-11-24T13:11:08.592Z,29.60
2017-11-24T13:13:35.077Z,38.30
2017-11-24T13:16:02.024Z,30.53
2017-11-24T13:21:59.920Z,32.97
2017-11-24T13:24:26.510Z,32.90
2017-11-24T13:26:52.974Z,30.43
2017-11-24T13:29:19.949Z,31.33
2017-11-24T13:31:46.461Z,35.83
2017-11-24T13:34:13.352Z,28.43
2017-11-24T13:36:39.752Z,25.80
2017-11-24T13:39:06.192Z,31.60
2017-11-24T13:41:33.233Z,31.67
2017-11-24T13:43:59.871Z,27.07
2017-11-24T13:46:26.303Z,29.50
2017-11-24T13:48:52.738Z,31.47
2017-11-24T13:51:19.071Z,29.30
2017-11-24T13:53:45.813Z,34.43
2017-11-24T13:56:12.189Z,34.43
2017-11-24T13:58:38.580Z,30.60
2017-11-24T14:01:05.032Z,30.83
2017-11-24T14:03:31.590Z,36.77
2017-11-24T14:05:58.783Z,37.73
2017-11-24T14:08:26.200Z,44.93
2017-11-24T14:10:53.365Z,34.00
2017-11-24T14:13:19.970Z,39.17
2017-11-24T14:15:46.388Z,49.17
2017-11-24T14:18:13.034Z,80.30
2017-11-24T14:20:39.461Z,66.37
2017-11-24T14:23:05.910Z,38.00
2017-11-24T14:25:32.331Z,42.00
2017-11-24T14:27:59.210Z,45.00
2017-11-24T14:30:25.608Z,43.40
2017-11-24T14:32:51.941Z,41.83
2017-11-24T14:35:18.410Z,41.03
2017-11-24T14:37:44.757Z,37.40
2017-11-24T14:40:11.260Z,37.23
2017-11-24T14:42:37.682Z,45.83
2017-11-24T14:45:04.227Z,40.53
2017-11-24T14:47:30.652Z,48.33
2017-11-24T14:49:56.984Z,46.33
2017-11-24T14:52:23.486Z,47.43
2017-11-24T14:54:50.672Z,62.47
2017-11-24T14:57:17.135Z,84.33
2017-11-24T14:59:43.913Z,80.63
2017-11-24T15:02:10.395Z,85.27
2017-11-24T15:04:36.934Z,90.10
2017-11-24T15:07:03.291Z,91.20
2017-11-24T15:09:29.800Z,89.57
2017-11-24T15:11:56.330Z,92.27
2017-11-24T15:14:22.876Z,89.63
2017-11-24T15:16:49.267Z,97.53
2017-11-24T15:19:15.736Z,88.60
2017-11-24T15:21:42.376Z,113.17
2017-11-24T15:24:08.913Z,92.27
2017-11-24T15:26:35.278Z,83.50
2017-11-24T15:29:01.710Z,94.23
2017-11-24T15:31:28.558Z,91.13
2017-11-24T15:33:54.990Z,83.40
2017-11-24T15:36:21.418Z,88.57
2017-11-24T15:38:47.941Z,90.20
2017-11-24T15:41:14.365Z,79.93
2017-11-24T15:43:40.903Z,111.50
2017-11-24T15:46:07.267Z,90.13
2017-11-24T15:48:33.779Z,110.20
2017-11-24T15:56:03.430Z,108.20
2017-11-24T15:58:30.075Z,90.40
2017-11-24T16:00:57.117Z,94.97
2017-11-24T16:05:55.629Z,90.70
2017-11-24T16:08:22.138Z,94.93
2017-11-24T16:10:48.671Z,89.33
2017-11-24T16:13:15.214Z,99.77
2017-11-24T16:35:53.494Z,109.53
2017-11-24T16:38:19.930Z,91.90
2017-11-24T16:40:46.358Z,93.83
2017-11-24T16:43:14.020Z,92.03
2017-11-24T16:45:40.453Z,104.43
2017-11-24T16:48:06.886Z,123.57
2017-11-24T16:50:33.256Z,118.17
2017-11-24T16:52:59.654Z,113.27
2017-11-24T16:55:26.034Z,124.47
2017-11-24T16:57:52.551Z,110.53
2017-11-24T17:00:18.958Z,119.07
2017-11-24T17:02:45.429Z,127.43
2017-11-24T17:05:12.016Z,139.37
2017-11-24T17:07:38.490Z,115.27
2017-11-24T17:10:05.012Z,157.83
2017-11-24T17:12:31.448Z,156.57
2017-11-24T17:14:57.885Z,174.43
2017-11-24T17:17:24.308Z,172.57
2017-11-24T17:19:50.747Z,165.80
2017-11-24T17:22:17.862Z,224.37
2017-11-24T17:24:44.439Z,184.53
2017-11-24T17:27:10.876Z,200.13
2017-11-24T17:29:37.300Z,202.17
2017-11-24T17:32:03.716Z,234.50
2017-11-24T17:34:30.189Z,200.27
2017-11-24T17:36:56.603Z,207.57
2017-11-24T17:39:23.789Z,201.90
2017-11-24T17:41:50.190Z,240.90
2017-11-24T17:44:16.633Z,220.33
2017-11-24T17:46:43.059Z,218.70
2017-11-24T17:49:09.504Z,219.77
2017-11-24T17:51:35.937Z,189.73
2017-11-24T17:54:02.295Z,204.97
2017-11-24T17:56:29.617Z,185.07
2017-11-24T17:58:56.060Z,192.57
2017-11-24T18:01:22.495Z,228.83
2017-11-24T18:03:48.928Z,290.30
2017-11-24T18:06:15.364Z,282.53
2017-11-24T18:08:41.790Z,267.67
2017-11-24T18:11:08.225Z,352.63
2017-11-24T18:13:35.376Z,332.07
2017-11-24T18:16:01.812Z,294.57
2017-11-24T18:18:28.245Z,392.87
2017-11-24T18:20:54.689Z,324.53
2017-11-24T18:23:21.133Z,312.90
2017-11-24T18:25:47.661Z,319.63
2017-11-24T18:28:14.086Z,376.03
2017-11-24T18:30:41.238Z,347.30
2017-11-24T18:33:07.673Z,416.00
2017-11-24T18:35:34.107Z,352.47
2017-11-24T18:38:00.423Z,372.83
2017-11-24T18:40:26.984Z,485.03
2017-11-24T18:42:53.411Z,498.80
2017-11-24T18:45:19.816Z,498.23
2017-11-24T18:47:46.986Z,429.10
2017-11-24T18:50:13.366Z,668.43
2017-11-24T18:52:39.976Z,426.53
2017-11-24T18:55:06.303Z,464.10
2017-11-24T18:57:32.739Z,416.50
2017-11-24T18:59:59.284Z,264.30
2017-11-24T19:02:25.708Z,373.73
2017-11-24T19:04:52.961Z,437.77
2017-11-24T19:07:19.397Z,352.80
2017-11-24T19:09:45.806Z,245.07
2017-11-24T19:12:12.275Z,391.10
2017-11-24T19:14:38.727Z,350.67
2017-11-24T19:17:05.137Z,301.73
2017-11-24T19:19:31.598Z,289.23
2017-11-24T19:21:58.619Z,413.70
2017-11-24T19:24:24.950Z,232.53
2017-11-24T19:26:51.281Z,267.73
2017-11-24T19:29:17.717Z,195.20
2017-11-24T19:31:44.159Z,160.17
2017-11-24T19:34:10.599Z,208.07
2017-11-24T19:36:36.996Z,176.87
2017-11-24T19:39:04.245Z,120.67
2017-11-24T19:41:30.718Z,176.50
2017-11-24T19:43:57.143Z,145.80
2017-11-24T19:46:23.476Z,256.73
2017-11-24T19:48:49.919Z,254.67
2017-11-24T19:51:16.344Z,237.83
2017-11-24T19:53:42.779Z,245.40
2017-11-24T19:56:09.932Z,204.40
2017-11-24T19:58:36.300Z,321.03
2017-11-24T20:01:02.775Z,193.97
2017-11-24T20:03:29.245Z,240.43
2017-11-24T20:05:55.670Z,135.73
2017-11-24T20:08:22.114Z,274.43
2017-11-24T20:10:48.436Z,270.37
2017-11-24T20:13:15.691Z,274.07
2017-11-24T20:15:42.133Z,218.00
2017-11-24T20:18:08.559Z,215.17
2017-11-24T20:20:34.927Z,238.00
2017-11-24T20:23:01.327Z,171.67
2017-11-24T20:25:27.762Z,95.10
2017-11-24T20:27:54.196Z,136.50
2017-11-24T20:30:21.426Z,122.00
2017-11-24T20:32:47.870Z,130.70
2017-11-24T20:35:14.312Z,123.27
2017-11-24T20:37:40.755Z,72.70
2017-11-24T20:40:07.187Z,71.93
2017-11-24T20:42:33.587Z,71.50
2017-11-24T20:45:00.068Z,69.50
2017-11-24T20:47:27.218Z,79.50
2017-11-24T20:49:53.651Z,83.83
2017-11-24T20:52:20.007Z,98.73
2017-11-24T20:54:46.410Z,89.00
2017-11-24T20:57:12.844Z,145.37
2017-11-24T20:59:39.391Z,187.80
2017-11-24T21:02:05.756Z,214.00
2017-11-24T21:04:32.987Z,144.60
2017-11-24T21:06:59.536Z,126.97
2017-11-24T21:09:25.942Z,123.13
2017-11-24T21:11:52.382Z,138.53
2017-11-24T21:14:18.809Z,159.33
2017-11-24T21:16:45.246Z,133.10
2017-11-24T21:19:11.683Z,133.03
2017-11-24T21:21:38.842Z,160.17
2017-11-24T21:24:05.275Z,116.60
2017-11-24T21:26:31.701Z,129.40
2017-11-24T21:28:58.117Z,140.57
2017-11-24T21:31:24.453Z,118.90
2017-11-24T21:33:50.764Z,152.57
2017-11-24T21:36:17.232Z,135.00
2017-11-24T21:38:44.321Z,123.17
2017-11-24T21:41:10.717Z,162.43
2017-11-24T21:43:37.161Z,283.53
2017-11-24T21:46:03.586Z,151.73
2017-11-24T21:48:30.123Z,253.57
2017-11-24T21:50:56.455Z,141.57
2017-11-24T21:53:23.000Z,108.53
2017-11-24T21:55:50.041Z,146.53
2017-11-24T21:58:16.485Z,195.67
2017-11-24T22:00:43.014Z,214.40
2017-11-24T22:03:09.449Z,118.47
2017-11-24T22:05:35.883Z,136.50
2017-11-24T22:08:02.318Z,129.50
2017-11-24T22:10:28.751Z,236.60
2017-11-24T22:12:56.025Z,140.30
2017-11-24T22:15:22.440Z,299.83
2017-11-24T22:17:48.883Z,247.70
2017-11-24T22:20:15.310Z,186.73
2017-11-24T22:22:41.744Z,118.57
2017-11-24T22:25:08.116Z,117.13
2017-11-24T22:27:34.520Z,113.97
2017-11-24T22:30:01.743Z,100.97
2017-11-24T22:32:28.208Z,127.27
2017-11-24T22:34:54.643Z,135.43
2017-11-24T22:37:21.051Z,101.50
2017-11-24T22:39:47.400Z,124.23
2017-11-24T22:42:13.804Z,110.27
2017-11-24T22:44:40.270Z,156.83
2017-11-24T22:47:07.422Z,143.57
2017-11-24T22:49:33.798Z,149.20
2017-11-24T22:52:00.301Z,95.77
2017-11-24T22:54:26.724Z,252.20
2017-11-24T22:56:53.262Z,136.33
2017-11-24T22:59:19.698Z,144.70
2017-11-24T23:01:46.131Z,178.53
2017-11-24T23:04:13.283Z,95.50
2017-11-24T23:06:39.622Z,119.60
2017-11-24T23:09:06.057Z,113.80
2017-11-24T23:11:32.493Z,71.87
2017-11-24T23:13:58.921Z,112.47
2017-11-24T23:16:25.362Z,86.30
2017-11-24T23:18:51.797Z,80.50
2017-11-24T23:21:18.947Z,71.00
2017-11-24T23:23:45.383Z,76.03
2017-11-24T23:26:11.817Z,98.63
2017-11-24T23:28:38.242Z,109.70
2017-11-24T23:31:04.687Z,137.47
2017-11-24T23:33:31.113Z,111.03
2017-11-24T23:35:57.549Z,154.83
2017-11-24T23:38:24.597Z,91.93
2017-11-24T23:40:50.931Z,156.17
2017-11-24T23:43:17.391Z,275.13
2017-11-24T23:45:43.801Z,66.60
2017-11-24T23:48:10.233Z,60.77
2017-11-24T23:50:36.667Z,78.50
2017-11-24T23:53:03.104Z,68.43
2017-11-24T23:55:30.355Z,68.67
2017-11-24T23:57:56.799Z,79.87
